Nearby METAR Reports

 

EDLW - Dortmund/Wickede, Germany
Distance from station: OSO 17km
Aktuell: 25/03/2019 10:20
teilweise bewölkt
teilweise bewölkt
 Wind aus WNW
Wind: WNW 20 km/h, Windböen: 39 km/h
Temperatur: 6°C
Wind Chill: 2°C
Taupunkt: 2°C
Luftfeuchte: 76%
Luftdruck: 1019 hPa
Clouds: teilweise bewölkt
Visibility: 10 km
Cloud details: leicht bewölkt 488 m
teilweise bewölkt 579 m
2019/03/25 09:20 EDLW 250920Z 29011G21KT 230V330 9999 FEW016 SCT019 06/02 Q1019
EDDL - Duesseldorf, Germany
Distance from station: SW 52km
Aktuell: 25/03/2019 10:50
sehr leichter Niederschlag, Showers, stark bewölkt
sehr leichter Niederschlag, Showers, stark bewölkt
 Wind aus WNW
Wind: WNW 33 km/h
Temperatur: 7°C
Wind Chill: 3°C
Taupunkt: 2°C
Luftfeuchte: 71%
Luftdruck: 1021 hPa
Zusammenfassung: sehr leichter Niederschlag, Showers
Clouds: stark bewölkt
Visibility: 10 km
Cloud details: leicht bewölkt 335 m
teilweise bewölkt 792 m
stark bewölkt 1097 m
2019/03/25 09:50 EDDL 250950Z 30018KT 9999 -SHRA FEW011 SCT026TCU BKN036 07/02 Q1021 NOSIG
 
EDDG - Muenster/Osnabru, Germany
Distance from station: NNO 67km
Aktuell: 25/03/2019 10:50
sehr leichter Niederschlag, Showers, stark bewölkt
sehr leichter Niederschlag, Showers, stark bewölkt
 Wind aus NW
Wind: NW 24 km/h, Windböen: 44 km/h
Temperatur: 6°C
Wind Chill: 2°C
Taupunkt: 3°C
Luftfeuchte: 81%
Luftdruck: 1018 hPa
Zusammenfassung: sehr leichter Niederschlag, Showers
Clouds: stark bewölkt
Visibility: 8 km
Cloud details: leicht bewölkt 274 m
teilweise bewölkt 549 m
stark bewölkt 732 m
2019/03/25 09:50 EDDG 250950Z 31013G24KT 280V360 8000 -SHRA FEW009 SCT018CB BKN024 06/03 Q1018 NOSIG
EDLN - Monchengladbach, Germany
Distance from station: WSW 72km
Aktuell: 25/03/2019 10:50
Nearby showers, stark bewölkt
Nearby showers, stark bewölkt
 Wind aus NW
Wind: NW 31 km/h
Temperatur: 8°C
Wind Chill: 3°C
Taupunkt: 2°C
Luftfeuchte: 66%
Luftdruck: 1022 hPa
Zusammenfassung: Nearby Showers
Clouds: stark bewölkt
Visibility: 10 km
Cloud details: stark bewölkt 853 m
2019/03/25 09:50 EDLN 250950Z 31017KT 9999 VCSH BKN028 08/02 Q1022
 
EDDK - Koeln/Bonn, Germany
Distance from station: SSW 79km
Aktuell: 25/03/2019 10:50
Nearby showers, stark bewölkt
Nearby showers, stark bewölkt
 Wind aus WNW
Wind: WNW 35 km/h
Temperatur: 9°C
Wind Chill: 5°C
Taupunkt: 2°C
Luftfeuchte: 62%
Luftdruck: 1021 hPa
Zusammenfassung: Nearby Showers
Clouds: stark bewölkt
Visibility: 10 km
Cloud details: stark bewölkt 884 m
2019/03/25 09:50 EDDK 250950Z 29019KT 9999 VCSH BKN029 09/02 Q1021 NOSIG
EDLP - Paderborn/Lippst, Germany
Distance from station: O 85km
Aktuell: 25/03/2019 10:50
sehr leichter Niederschlag, stark bewölkt
sehr leichter Niederschlag, stark bewölkt
 Wind aus W
Wind: W 20 km/h, Windböen: 39 km/h
Temperatur: 4°C
Wind Chill: -1°C
Taupunkt: 3°C
Luftfeuchte: 93%
Luftdruck: 1017 hPa
Zusammenfassung: sehr leichter Niederschlag
Clouds: stark bewölkt
Visibility: 10 km
Cloud details: leicht bewölkt 305 m
stark bewölkt 396 m
stark bewölkt 457 m
2019/03/25 09:50 EDLP 250950Z 27011G21KT 230V310 9999 -RA FEW010 BKN013 BKN015 04/03 Q1017
 
EDLV - Niederrhein, Germany
Distance from station: W 86km
Aktuell: 25/03/2019 10:50
Nearby showers, teilweise bewölkt
Nearby showers, teilweise bewölkt
 Wind aus WNW
Wind: WNW 24 km/h
Temperatur: 8°C
Wind Chill: 4°C
Taupunkt: 3°C
Luftfeuchte: 71%
Luftdruck: 1022 hPa
Zusammenfassung: Nearby Showers
Clouds: teilweise bewölkt
Visibility: 10 km
Cloud details: teilweise bewölkt 610 m
2019/03/25 09:50 EDLV 250950Z 30013KT 280V340 9999 VCSH SCT020TCU 08/03 Q1022
ETNN - Noervenich (gaf), Germany
Distance from station: SSW 97km
Aktuell: 25/03/2019 10:50
teilweise bewölkt
teilweise bewölkt
 Wind aus NW
Wind: NW 33 km/h
Temperatur: 7°C
Wind Chill: 3°C
Taupunkt: 1°C
Luftfeuchte: 66%
Luftdruck: 1022 hPa
Clouds: teilweise bewölkt
Visibility: 10 km
Cloud details: stark bewölkt 457 m
teilweise bewölkt 1524 m
2019/03/25 09:50 ETNN 250950Z 31018KT 9999 BKN015TCU SCT050 07/01 Q1022 WHT BLU TEMPO GRN